Time;durP1;ratioP1;P1;durP2;ratioP2;P2;SDS_P1;SDS_P2;PMS_P1;PMS_P2;Temp;Humidity;BMP_temperature;BMP_pressure;BME280_temperature;BME280_humidity;BME280_pressure;Samples;Min_cycle;Max_cycle;Signal;HPM_P1;HPM_P2
2023/01/05 00:01:30;;;;;;;19.80;10.38;;;;;;;8.85;nan;-24064.38;5012080;28;20199;-72
2023/01/05 00:03:55;;;;;;;17.80;9.52;;;;;;;8.91;nan;-24065.78;5011638;28;20224;-71
2023/01/05 00:06:21;;;;;;;21.15;9.27;;;;;;;8.84;nan;-24063.94;5012069;28;20176;-73
2023/01/05 00:08:46;;;;;;;19.85;9.82;;;;;;;8.73;nan;-24060.97;5011833;28;20183;-70
2023/01/05 00:22:29;;;;;;;20.92;10.30;;;;;;;8.94;nan;-24066.63;5012313;28;20556;-72
2023/01/05 00:25:00;;;;;;;17.30;8.88;;;;;;;8.81;nan;-24063.09;5011964;28;20206;-73
2023/01/05 00:27:26;;;;;;;23.63;10.02;;;;;;;9.02;nan;-24068.91;5012244;28;20176;-71
2023/01/05 00:29:51;;;;;;;20.52;10.88;;;;;;;9.10;nan;-24071.16;5012115;28;20183;-72
2023/01/05 00:32:17;;;;;;;23.98;10.38;;;;;;;9.11;nan;-24071.44;5011945;28;20624;-70
2023/01/05 00:34:42;;;;;;;21.60;10.73;;;;;;;9.02;nan;-24068.91;5013784;28;20180;-72
2023/01/05 00:37:07;;;;;;;21.35;9.70;;;;;;;8.96;nan;-24067.19;5016985;28;20261;-72
2023/01/05 00:39:33;;;;;;;24.48;10.50;;;;;;;8.85;nan;-24064.22;5026138;28;20184;-71
2023/01/05 00:41:58;;;;;;;19.55;9.70;;;;;;;8.50;nan;-24054.31;5050090;28;20184;-71
2023/01/05 00:44:24;;;;;;;30.95;10.25;;;;;;;8.68;nan;-24059.56;5012049;28;20180;-72
2023/01/05 00:46:49;;;;;;;20.92;10.88;;;;;;;8.74;nan;-24061.13;5011929;28;20639;-72
2023/01/05 00:49:15;;;;;;;23.33;9.85;;;;;;;8.46;nan;-24053.34;5011326;28;20176;-71
2023/01/05 00:51:40;;;;;;;22.53;10.13;;;;;;;8.94;nan;-24066.78;5012506;28;20168;-73
2023/01/05 00:54:06;;;;;;;17.88;9.10;;;;;;;8.87;nan;-24064.78;5011581;28;20652;-71
2023/01/05 00:56:31;;;;;;;21.73;10.90;;;;;;;8.39;nan;-24051.50;5011964;28;20666;-73
2023/01/05 00:58:57;;;;;;;21.07;10.67;;;;;;;8.50;nan;-24054.31;5015555;28;20516;-73
2023/01/05 01:01:22;;;;;;;26.70;11.85;;;;;;;8.60;nan;-24057.16;5015791;28;20186;-71
2023/01/05 01:03:48;;;;;;;22.57;11.93;;;;;;;7.90;nan;-24037.75;5015053;28;20278;-72
2023/01/05 01:06:14;;;;;;;23.77;11.47;;;;;;;8.31;nan;-24049.22;5015756;28;20164;-71
2023/01/05 01:08:39;;;;;;;29.80;13.13;;;;;;;8.27;nan;-24048.09;5015676;28;20172;-71
2023/01/05 01:11:06;;;;;;;23.07;11.57;;;;;;;8.22;nan;-24046.53;5016243;28;20199;-71
2023/01/05 01:13:32;;;;;;;21.03;10.87;;;;;;;8.21;nan;-24046.41;5019374;28;20589;-72
2023/01/05 01:15:57;;;;;;;22.17;10.93;;;;;;;8.50;nan;-24054.47;5015155;28;20180;-71
2023/01/05 01:18:23;;;;;;;21.20;10.50;;;;;;;8.20;nan;-24046.09;5015085;28;20628;-72
2023/01/05 01:20:48;;;;;;;21.63;10.30;;;;;;;8.47;nan;-24053.47;5015241;28;20250;-71
2023/01/05 01:23:13;;;;;;;18.43;9.90;;;;;;;8.22;nan;-24046.53;5015091;28;20172;-71
2023/01/05 01:25:39;;;;;;;19.10;9.77;;;;;;;8.66;nan;-24059.00;5015330;28;20164;-70
2023/01/05 01:28:05;;;;;;;23.57;11.20;;;;;;;8.31;nan;-24049.09;5015112;28;20275;-70
2023/01/05 01:30:30;;;;;;;23.40;10.25;;;;;;;8.56;nan;-24056.03;5015002;28;20177;-70
2023/01/05 01:32:56;;;;;;;21.83;9.77;;;;;;;8.40;nan;-24051.63;5014699;28;20187;-70
2023/01/05 01:35:21;;;;;;;22.40;10.27;;;;;;;8.61;nan;-24057.56;5015207;28;20214;-72
2023/01/05 01:37:47;;;;;;;22.77;11.07;;;;;;;8.30;nan;-24048.81;5015154;28;20327;-72
2023/01/05 01:40:12;;;;;;;19.53;11.17;;;;;;;8.47;nan;-24053.47;5014978;28;20263;-70
2023/01/05 01:42:38;;;;;;;20.17;10.43;;;;;;;8.23;nan;-24046.81;5014917;28;20181;-70
2023/01/05 01:45:13;;;;;;;28.17;10.00;;;;;;;8.50;nan;-24054.47;5015046;28;20771;-72
2023/01/05 01:47:44;;;;;;;22.30;9.68;;;;;;;8.07;nan;-24042.28;5018178;28;20673;-70
2023/01/05 01:50:16;;;;;;;18.53;9.67;;;;;;;8.13;nan;-24044.13;5015151;28;20184;-69
2023/01/05 01:52:43;;;;;;;23.93;10.30;;;;;;;8.32;nan;-24049.50;5014381;28;20223;-74
2023/01/05 01:55:09;;;;;;;21.87;10.63;;;;;;;8.12;nan;-24043.84;5014239;28;20195;-70
2023/01/05 01:57:35;;;;;;;22.40;10.33;;;;;;;7.67;nan;-24031.25;5014669;28;20200;-70
2023/01/05 02:00:04;;;;;;;18.58;8.48;;;;;;;7.99;nan;-24040.31;5014592;28;20179;-70
2023/01/05 02:02:29;;;;;;;18.03;9.60;;;;;;;7.95;nan;-24039.03;5013812;28;20212;-72
2023/01/05 02:05:02;;;;;;;18.87;8.73;;;;;;;7.42;nan;-24024.16;5012847;28;20314;-72
2023/01/05 02:07:32;;;;;;;19.37;9.47;;;;;;;7.74;nan;-24033.22;5014675;28;20258;-71
2023/01/05 02:10:01;;;;;;;18.50;8.83;;;;;;;7.43;nan;-24024.44;5013417;28;20184;-72
2023/01/05 02:12:37;;;;;;;17.87;9.23;;;;;;;7.78;nan;-24034.34;5014306;28;20617;-72
2023/01/05 02:15:40;;;;;;;16.67;9.57;;;;;;;7.66;nan;-24030.81;5014254;28;20176;-71
2023/01/05 02:18:30;;;;;;;21.13;8.93;;;;;;;7.65;nan;-24030.53;5014504;28;20203;-72
2023/01/05 02:21:10;;;;;;;19.73;9.17;;;;;;;7.59;nan;-24028.81;5015150;28;20675;-72
2023/01/05 02:24:06;;;;;;;18.73;9.10;;;;;;;7.49;nan;-24026.28;5016813;28;20325;-73
2023/01/05 02:26:41;;;;;;;16.17;9.13;;;;;;;7.21;nan;-24018.34;5006987;28;20263;-73
2023/01/05 02:29:15;;;;;;;19.33;8.90;;;;;;;6.94;nan;-24010.69;5013998;28;20627;-72
2023/01/05 02:31:50;;;;;;;17.83;9.10;;;;;;;7.34;nan;-24022.03;5014141;28;20172;-73
2023/01/05 02:34:29;;;;;;;16.97;9.70;;;;;;;7.22;nan;-24018.47;5014250;28;20168;-71
2023/01/05 02:37:07;;;;;;;19.97;9.27;;;;;;;6.84;nan;-24008.00;5013803;28;20210;-73
2023/01/05 02:39:48;;;;;;;21.07;11.17;;;;;;;6.80;nan;-24006.84;5013941;28;20628;-73
2023/01/05 02:42:21;;;;;;;20.57;10.13;;;;;;;6.95;nan;-24011.09;5014462;28;20183;-73
2023/01/05 02:44:46;;;;;;;20.57;10.30;;;;;;;7.14;nan;-24016.34;5012296;28;20180;-73
2023/01/05 02:47:24;;;;;;;20.33;9.97;;;;;;;7.13;nan;-24015.94;5013856;28;20184;-73
2023/01/05 02:49:53;;;;;;;19.50;9.57;;;;;;;6.90;nan;-24009.69;5013906;28;20615;-73
2023/01/05 02:52:20;;;;;;;25.17;11.43;;;;;;;6.73;nan;-24004.88;5013384;28;20206;-73
2023/01/05 02:55:02;;;;;;;25.03;11.00;;;;;;;6.79;nan;-24006.56;5013739;28;20176;-72
2023/01/05 02:57:45;;;;;;;17.67;9.33;;;;;;;6.71;nan;-24004.16;5013447;28;20199;-71
2023/01/05 03:00:21;;;;;;;17.43;9.53;;;;;;;6.60;nan;-24001.19;5014613;28;21246;-73
2023/01/05 03:02:49;;;;;;;16.23;9.27;;;;;;;6.73;nan;-24004.72;5009072;28;20639;-71
2023/01/05 03:05:23;;;;;;;16.23;8.93;;;;;;;6.41;nan;-23995.91;5012613;28;20713;-73
2023/01/05 03:07:50;;;;;;;19.13;9.63;;;;;;;6.36;nan;-23994.50;5013582;28;20176;-72
2023/01/05 03:15:57;;;;;;;19.13;10.33;;;;;;;6.68;nan;-24003.44;5013383;28;20553;-73
2023/01/05 03:18:25;;;;;;;23.00;10.03;;;;;;;6.69;nan;-24003.72;5011360;28;20200;-72
2023/01/05 03:20:53;;;;;;;18.50;9.83;;;;;;;6.61;nan;-24001.59;5012115;28;20597;-71
2023/01/05 03:35:35;;;;;;;17.63;8.83;;;;;;;6.37;nan;-23994.78;5024624;28;20654;-70
2023/01/05 03:38:26;;;;;;;15.90;8.53;;;;;;;6.88;nan;-24009.13;5017072;28;20276;-72
2023/01/05 03:40:54;;;;;;;20.13;9.33;;;;;;;6.90;nan;-24009.69;5012375;28;20180;-71
2023/01/05 03:43:21;;;;;;;25.07;10.40;;;;;;;6.78;nan;-24006.28;5011958;28;20168;-73
2023/01/05 03:45:55;;;;;;;19.93;10.97;;;;;;;6.65;nan;-24002.72;5011881;28;20186;-73
2023/01/05 03:48:22;;;;;;;22.10;11.93;;;;;;;6.47;nan;-23997.63;5011990;28;20168;-72
2023/01/05 03:50:48;;;;;;;18.67;9.53;;;;;;;6.66;nan;-24003.00;5011250;28;20160;-71
2023/01/05 03:53:13;;;;;;;21.67;10.63;;;;;;;6.83;nan;-24007.69;5012325;28;20238;-72
2023/01/05 03:55:39;;;;;;;27.67;12.17;;;;;;;6.76;nan;-24005.56;5012487;28;20677;-72
2023/01/05 03:58:04;;;;;;;26.57;11.73;;;;;;;6.87;nan;-24008.84;5012461;28;20284;-71
2023/01/05 04:00:30;;;;;;;20.60;10.07;;;;;;;6.65;nan;-24002.59;5012385;28;20176;-71
2023/01/05 04:02:55;;;;;;;25.43;11.00;;;;;;;6.49;nan;-23998.19;5012165;28;20595;-71
2023/01/05 04:05:21;;;;;;;21.00;10.57;;;;;;;6.87;nan;-24008.84;5012972;28;20230;-71
2023/01/05 04:07:46;;;;;;;20.03;10.93;;;;;;;6.78;nan;-24006.13;5012432;28;20179;-73
2023/01/05 04:10:12;;;;;;;24.23;11.40;;;;;;;7.01;nan;-24012.66;5012426;28;20219;-71
2023/01/05 04:12:37;;;;;;;23.87;12.00;;;;;;;6.99;nan;-24012.09;5014911;28;20184;-73
2023/01/05 04:15:04;;;;;;;25.10;10.90;;;;;;;6.90;nan;-24009.53;5014428;28;20363;-73
2023/01/05 04:17:29;;;;;;;23.53;11.23;;;;;;;6.74;nan;-24005.00;5012047;28;20298;-71
2023/01/05 04:19:55;;;;;;;27.27;12.17;;;;;;;7.24;nan;-24019.03;5012450;28;20235;-72
2023/01/05 04:22:20;;;;;;;18.10;9.23;;;;;;;7.21;nan;-24018.19;5012689;28;20179;-73
2023/01/05 04:24:46;;;;;;;25.00;11.30;;;;;;;6.84;nan;-24007.84;5010748;28;20176;-72
2023/01/05 04:27:11;;;;;;;21.93;12.30;;;;;;;7.21;nan;-24018.19;5012129;28;20179;-73
2023/01/05 04:29:37;;;;;;;21.53;11.80;;;;;;;6.75;nan;-24005.28;5012424;28;20636;-74
2023/01/05 04:32:02;;;;;;;18.10;11.50;;;;;;;6.94;nan;-24010.69;5011284;28;20177;-73
2023/01/05 04:34:27;;;;;;;19.70;10.70;;;;;;;6.49;nan;-23998.06;5012364;28;20195;-73
2023/01/05 04:36:53;;;;;;;19.93;10.53;;;;;;;6.81;nan;-24007.13;5012037;28;20578;-73
2023/01/05 04:39:18;;;;;;;21.00;10.47;;;;;;;6.39;nan;-23995.22;5011992;28;20246;-72
2023/01/05 04:41:44;;;;;;;25.00;11.83;;;;;;;6.77;nan;-24005.84;5012002;28;20195;-73
2023/01/05 04:44:09;;;;;;;26.73;12.27;;;;;;;6.48;nan;-23997.75;5011975;28;20212;-73
2023/01/05 04:46:34;;;;;;;24.17;10.93;;;;;;;6.42;nan;-23996.06;5011605;28;20183;-73
2023/01/05 04:49:00;;;;;;;24.67;11.90;;;;;;;6.55;nan;-23999.75;5017331;28;20194;-73
2023/01/05 04:51:25;;;;;;;19.93;10.97;;;;;;;6.89;nan;-24009.41;5012299;28;20176;-73
2023/01/05 04:53:51;;;;;;;24.70;11.37;;;;;;;6.79;nan;-24006.44;5011776;28;20192;-72
2023/01/05 04:56:17;;;;;;;23.90;12.10;;;;;;;6.73;nan;-24004.88;5011224;28;20176;-72
2023/01/05 04:58:42;;;;;;;19.97;11.43;;;;;;;6.80;nan;-24006.84;5011341;28;20234;-71
2023/01/05 05:01:08;;;;;;;26.10;12.23;;;;;;;6.60;nan;-24001.19;5012079;28;20176;-72
2023/01/05 05:03:33;;;;;;;26.03;11.13;;;;;;;6.26;nan;-23991.66;5011706;28;20183;-73
2023/01/05 05:05:59;;;;;;;20.03;11.37;;;;;;;6.58;nan;-24000.59;5011240;28;20549;-72
2023/01/05 05:08:24;;;;;;;18.17;10.63;;;;;;;6.14;nan;-23988.41;5011717;28;20172;-73
2023/01/05 05:10:49;;;;;;;22.70;11.27;;;;;;;6.08;nan;-23986.56;5008551;28;20548;-71
2023/01/05 05:13:15;;;;;;;29.03;11.50;;;;;;;6.23;nan;-23990.81;5011358;28;20192;-73
2023/01/05 05:15:42;;;;;;;27.80;11.80;;;;;;;6.43;nan;-23996.34;5011103;28;20172;-71
2023/01/05 05:18:08;;;;;;;17.43;10.67;;;;;;;6.32;nan;-23993.22;5010646;28;20633;-72
2023/01/05 05:20:33;;;;;;;20.50;11.03;;;;;;;6.31;nan;-23992.94;5011529;28;20184;-73
2023/01/05 05:22:59;;;;;;;23.07;11.23;;;;;;;6.39;nan;-23995.34;5011396;28;20175;-73
2023/01/05 05:25:24;;;;;;;21.70;10.23;;;;;;;6.28;nan;-23992.22;5013276;28;20187;-72
2023/01/05 05:27:49;;;;;;;24.43;11.47;;;;;;;6.01;nan;-23984.56;5010972;28;20180;-72
2023/01/05 05:30:15;;;;;;;19.17;11.13;;;;;;;6.04;nan;-23985.56;5010612;28;20259;-72
2023/01/05 05:32:40;;;;;;;26.10;12.27;;;;;;;5.59;nan;-23972.91;5011864;28;20176;-73
2023/01/05 05:35:06;;;;;;;18.53;10.77;;;;;;;5.48;nan;-23969.78;5011249;28;20176;-74
2023/01/05 05:37:31;;;;;;;26.23;12.43;;;;;;;5.12;nan;-23959.69;5011162;28;20250;-73
2023/01/05 05:39:57;;;;;;;24.53;11.80;;;;;;;6.01;nan;-23984.69;5010943;28;20273;-74
2023/01/05 05:42:22;;;;;;;27.43;11.13;;;;;;;5.81;nan;-23979.00;5010842;28;20185;-72
2023/01/05 05:44:47;;;;;;;22.97;12.37;;;;;;;5.95;nan;-23983.00;5012567;28;20251;-72
2023/01/05 05:47:13;;;;;;;24.47;10.77;;;;;;;5.44;nan;-23968.50;5014156;28;20168;-71
2023/01/05 05:49:38;;;;;;;21.10;12.77;;;;;;;5.46;nan;-23969.06;5014216;28;20171;-70
2023/01/05 05:52:04;;;;;;;25.90;14.20;;;;;;;5.48;nan;-23969.78;5014654;28;20255;-71
2023/01/05 05:54:29;;;;;;;22.77;11.27;;;;;;;5.64;nan;-23974.19;5014452;28;20164;-73
2023/01/05 05:56:54;;;;;;;27.70;13.00;;;;;;;5.82;nan;-23979.16;5014450;28;20574;-73
2023/01/05 05:59:20;;;;;;;34.10;14.07;;;;;;;5.65;nan;-23974.47;5014485;28;20279;-73
2023/01/05 06:01:45;;;;;;;21.40;12.07;;;;;;;5.95;nan;-23983.00;5012965;28;20234;-71
2023/01/05 06:04:11;;;;;;;34.83;14.97;;;;;;;5.60;nan;-23973.19;5013978;28;20706;-73
2023/01/05 06:06:36;;;;;;;26.30;13.27;;;;;;;5.44;nan;-23968.50;5014668;28;20187;-72
2023/01/05 06:09:01;;;;;;;30.03;12.63;;;;;;;5.27;nan;-23963.94;5014172;28;20183;-73
2023/01/05 06:11:27;;;;;;;23.10;12.43;;;;;;;5.69;nan;-23975.59;5014293;28;20188;-72
2023/01/05 06:13:52;;;;;;;26.87;13.20;;;;;;;5.55;nan;-23971.63;5014043;28;20264;-71
2023/01/05 06:16:17;;;;;;;28.43;14.07;;;;;;;5.40;nan;-23967.38;5013597;28;20203;-73
2023/01/05 06:18:43;;;;;;;17.23;10.80;;;;;;;5.49;nan;-23970.06;5013992;28;20183;-74
2023/01/05 06:21:08;;;;;;;19.47;11.20;;;;;;;5.54;nan;-23971.34;5014030;28;20697;-74
2023/01/05 06:23:34;;;;;;;25.90;13.67;;;;;;;5.61;nan;-23973.34;5013631;28;20604;-73
2023/01/05 06:25:59;;;;;;;23.77;12.27;;;;;;;5.77;nan;-23977.88;5013836;28;20180;-74
2023/01/05 06:28:24;;;;;;;23.80;12.27;;;;;;;5.91;nan;-23981.72;5014926;28;20176;-71
2023/01/05 06:30:50;;;;;;;20.67;12.10;;;;;;;5.66;nan;-23974.75;5026098;28;20592;-73
2023/01/05 06:33:15;;;;;;;29.07;12.03;;;;;;;5.96;nan;-23983.13;5016342;28;20176;-73
2023/01/05 06:35:41;;;;;;;30.07;12.60;;;;;;;5.96;nan;-23983.28;5013732;28;20203;-73
2023/01/05 06:38:06;;;;;;;27.03;13.67;;;;;;;6.06;nan;-23985.97;5013609;28;20207;-71
2023/01/05 06:40:31;;;;;;;27.20;13.33;;;;;;;5.96;nan;-23983.13;5013963;28;20209;-71
2023/01/05 06:42:57;;;;;;;24.30;12.90;;;;;;;6.13;nan;-23988.13;5013807;28;20180;-73
2023/01/05 06:45:22;;;;;;;24.80;14.23;;;;;;;5.79;nan;-23978.59;5013621;28;20259;-73
2023/01/05 06:47:48;;;;;;;39.00;14.80;;;;;;;5.92;nan;-23982.00;5013130;28;20168;-72
2023/01/05 06:50:13;;;;;;;28.07;12.07;;;;;;;6.17;nan;-23989.25;5012289;28;20187;-71
2023/01/05 06:52:39;;;;;;;30.67;12.53;;;;;;;6.10;nan;-23987.13;5012471;28;20584;-73
2023/01/05 06:55:11;;;;;;;23.23;11.57;;;;;;;5.73;nan;-23976.88;5012330;28;20689;-71
2023/01/05 06:57:37;;;;;;;22.27;12.70;;;;;;;5.92;nan;-23982.16;5021425;28;20684;-71
2023/01/05 07:00:09;;;;;;;25.70;11.80;;;;;;;5.96;nan;-23983.28;5033437;28;20179;-72
2023/01/05 07:02:34;;;;;;;19.80;11.67;;;;;;;5.95;nan;-23982.84;5033799;28;20160;-73
2023/01/05 07:05:00;;;;;;;24.50;13.60;;;;;;;6.18;nan;-23989.38;5032087;28;20740;-71
2023/01/05 07:07:25;;;;;;;28.37;13.33;;;;;;;5.90;nan;-23981.44;5031252;28;20646;-71
2023/01/05 07:09:51;;;;;;;24.03;12.60;;;;;;;5.99;nan;-23984.00;5032130;28;20491;-73
2023/01/05 07:12:16;;;;;;;24.33;14.10;;;;;;;6.43;nan;-23996.50;5032589;28;20628;-70
2023/01/05 07:14:42;;;;;;;25.87;11.17;;;;;;;6.42;nan;-23996.22;5033102;28;20175;-73
2023/01/05 07:17:07;;;;;;;26.63;12.97;;;;;;;6.49;nan;-23998.06;5032759;28;20207;-73
2023/01/05 07:19:33;;;;;;;28.70;14.23;;;;;;;6.31;nan;-23992.94;5032664;28;20160;-73
2023/01/05 07:21:58;;;;;;;29.27;15.43;;;;;;;6.47;nan;-23997.47;5032570;28;20179;-73
2023/01/05 07:24:23;;;;;;;26.57;14.13;;;;;;;6.40;nan;-23995.63;5032751;28;20206;-73
2023/01/05 07:26:49;;;;;;;29.33;14.43;;;;;;;6.32;nan;-23993.38;5032538;28;20207;-71
2023/01/05 07:29:15;;;;;;;27.20;13.37;;;;;;;6.62;nan;-24001.88;5032156;28;20661;-71
2023/01/05 07:31:40;;;;;;;31.43;15.20;;;;;;;6.94;nan;-24010.69;5029997;28;20586;-71
2023/01/05 07:34:07;;;;;;;27.53;13.43;;;;;;;7.06;nan;-24014.22;5031841;28;20365;-71
2023/01/05 07:36:32;;;;;;;31.10;15.07;;;;;;;6.83;nan;-24007.56;5031722;28;20209;-70
2023/01/05 07:38:58;;;;;;;37.63;15.53;;;;;;;6.87;nan;-24008.84;5030133;28;20183;-71
2023/01/05 07:41:23;;;;;;;30.20;14.43;;;;;;;7.13;nan;-24015.94;5031410;28;20186;-72
2023/01/05 07:43:49;;;;;;;32.10;15.03;;;;;;;7.21;nan;-24018.19;5030755;28;20218;-73
2023/01/05 07:46:14;;;;;;;34.43;16.23;;;;;;;7.16;nan;-24016.78;5031462;28;20179;-72
2023/01/05 07:48:40;;;;;;;34.47;13.93;;;;;;;7.52;nan;-24026.97;5031069;28;20171;-70
2023/01/05 07:51:06;;;;;;;30.00;15.17;;;;;;;7.64;nan;-24030.38;5031332;28;20173;-71
2023/01/05 07:53:34;;;;;;;24.13;13.03;;;;;;;7.60;nan;-24029.09;5031132;28;20233;-75
2023/01/05 07:56:00;;;;;;;31.37;15.03;;;;;;;7.41;nan;-24024.00;5030770;28;20228;-73
2023/01/05 07:58:27;;;;;;;29.90;12.70;;;;;;;7.69;nan;-24031.81;5030746;28;20203;-74
2023/01/05 08:00:53;;;;;;;28.17;13.40;;;;;;;7.80;nan;-24034.91;5031067;28;20603;-72
2023/01/05 08:03:19;;;;;;;24.20;12.87;;;;;;;8.18;nan;-24045.53;5029461;28;20183;-71
2023/01/05 08:05:45;;;;;;;31.03;14.20;;;;;;;7.79;nan;-24034.63;5030923;28;20666;-72
2023/01/05 08:08:11;;;;;;;29.53;13.33;;;;;;;7.80;nan;-24034.91;5030455;28;20292;-72
2023/01/05 08:10:38;;;;;;;23.93;12.47;;;;;;;8.08;nan;-24042.72;5031885;28;20218;-72
2023/01/05 08:15:58;;;;;;;26.13;11.83;;;;;;;8.18;nan;-24045.53;5031721;28;20661;-71
2023/01/05 08:18:24;;;;;;;29.43;13.17;;;;;;;8.38;nan;-24051.06;5031737;28;20210;-72
2023/01/05 08:20:55;;;;;;;26.37;14.10;;;;;;;8.50;nan;-24054.47;5031266;28;20557;-72
2023/01/05 08:23:22;;;;;;;23.27;11.40;;;;;;;8.25;nan;-24047.38;5031453;28;20174;-71
2023/01/05 08:25:47;;;;;;;19.73;11.53;;;;;;;8.33;nan;-24049.78;5031487;28;20179;-72
2023/01/05 08:28:13;;;;;;;27.77;12.00;;;;;;;8.82;nan;-24063.53;5031789;28;20277;-72
2023/01/05 08:30:38;;;;;;;22.65;11.50;;;;;;;8.59;nan;-24057.00;5031521;28;20233;-72
2023/01/05 08:33:04;;;;;;;16.95;9.43;;;;;;;9.05;nan;-24069.88;5031457;28;20578;-73
2023/01/05 08:35:30;;;;;;;19.65;9.52;;;;;;;8.88;nan;-24064.94;5031741;28;20225;-73
2023/01/05 08:37:55;;;;;;;28.15;11.43;;;;;;;9.13;nan;-24072.00;5031149;28;20635;-71
2023/01/05 08:40:20;;;;;;;24.25;11.82;;;;;;;9.27;nan;-24075.97;5031382;28;20588;-72
2023/01/05 08:42:48;;;;;;;21.95;11.40;;;;;;;9.85;nan;-24092.22;5030747;28;20611;-72
2023/01/05 08:45:14;;;;;;;29.38;12.15;;;;;;;9.87;nan;-24092.78;5030798;28;20175;-72
2023/01/05 08:47:40;;;;;;;28.35;12.60;;;;;;;9.94;nan;-24094.75;5031424;28;20244;-73
2023/01/05 08:50:08;;;;;;;21.23;11.00;;;;;;;9.93;nan;-24094.47;5030465;28;20268;-72
2023/01/05 08:52:34;;;;;;;22.00;10.25;;;;;;;10.04;nan;-24097.44;5030522;28;20168;-73
2023/01/05 08:54:59;;;;;;;22.63;11.38;;;;;;;9.93;nan;-24094.34;5030865;28;20523;-71
2023/01/05 08:57:25;;;;;;;23.67;11.13;;;;;;;10.38;nan;-24106.91;5030692;28;20203;-71
2023/01/05 08:59:50;;;;;;;22.77;11.00;;;;;;;10.52;nan;-24110.84;5030361;28;20167;-73
2023/01/05 09:02:15;;;;;;;23.20;11.32;;;;;;;10.38;nan;-24107.03;5030864;28;20245;-72
2023/01/05 09:04:41;;;;;;;19.60;11.05;;;;;;;10.35;nan;-24106.06;5031182;28;20216;-72
2023/01/05 09:07:06;;;;;;;26.75;9.93;;;;;;;10.61;nan;-24113.41;5030943;28;20183;-72
2023/01/05 09:09:32;;;;;;;20.52;10.23;;;;;;;10.94;nan;-24122.56;5022254;28;20184;-71
2023/01/05 09:11:57;;;;;;;26.05;11.05;;;;;;;10.90;nan;-24121.44;5011279;28;20179;-71
2023/01/05 09:14:22;;;;;;;26.13;10.30;;;;;;;10.87;nan;-24120.72;5010812;28;20184;-72
2023/01/05 09:16:48;;;;;;;22.90;10.43;;;;;;;11.37;nan;-24134.69;5011648;28;20206;-72
2023/01/05 09:19:14;;;;;;;22.85;9.98;;;;;;;11.28;nan;-24132.00;5013961;28;20305;-73
2023/01/05 09:21:39;;;;;;;21.98;10.50;;;;;;;11.46;nan;-24137.09;5014655;28;20562;-73
2023/01/05 09:24:13;;;;;;;24.42;11.43;;;;;;;11.49;nan;-24137.94;5018768;28;20655;-71
2023/01/05 09:26:39;;;;;;;26.80;11.77;;;;;;;11.78;nan;-24146.09;5027619;28;20180;-72
2023/01/05 09:29:05;;;;;;;23.77;12.10;;;;;;;11.89;nan;-24149.06;5013539;28;20258;-71
2023/01/05 09:31:30;;;;;;;24.13;11.25;;;;;;;11.95;nan;-24150.75;5014986;28;20271;-73
2023/01/05 09:33:57;;;;;;;16.95;9.80;;;;;;;11.87;nan;-24148.63;5015193;28;20291;-71
2023/01/05 09:36:24;;;;;;;20.67;9.80;;;;;;;12.08;nan;-24154.41;5014614;28;20176;-71
2023/01/05 09:38:51;;;;;;;17.33;9.35;;;;;;;11.99;nan;-24151.72;5014594;28;20200;-72
2023/01/05 09:41:21;;;;;;;18.23;8.20;;;;;;;12.32;nan;-24161.03;5014551;28;20256;-73
2023/01/05 09:43:50;;;;;;;18.15;8.60;;;;;;;12.31;nan;-24160.88;5014448;28;20719;-72
2023/01/05 09:46:20;;;;;;;18.23;8.73;;;;;;;12.42;nan;-24163.69;5014398;28;20172;-72
2023/01/05 09:48:50;;;;;;;23.13;9.13;;;;;;;12.42;nan;-24163.69;5014363;28;20257;-72
2023/01/05 09:51:15;;;;;;;17.17;7.65;;;;;;;12.37;nan;-24162.56;5014504;28;20206;-72
2023/01/05 09:53:41;;;;;;;13.63;7.95;;;;;;;12.36;nan;-24162.28;5014539;28;20176;-70
2023/01/05 09:56:23;;;;;;;20.98;7.47;;;;;;;12.80;nan;-24174.38;5020285;28;20191;-74
2023/01/05 09:58:51;;;;;;;15.38;6.57;;;;;;;12.93;nan;-24177.91;5014508;28;20223;-73
2023/01/05 10:01:19;;;;;;;17.77;8.70;;;;;;;12.94;nan;-24178.19;5014468;28;20528;-73
2023/01/05 10:03:55;;;;;;;18.33;8.07;;;;;;;12.95;nan;-24178.47;5013904;28;20224;-73
2023/01/05 10:06:25;;;;;;;19.65;8.68;;;;;;;12.90;nan;-24177.06;5013861;28;20262;-73
2023/01/05 10:08:51;;;;;;;15.32;7.10;;;;;;;13.00;nan;-24180.00;5012328;28;20184;-72
2023/01/05 10:14:16;;;;;;;15.80;7.78;;;;;;;13.44;nan;-24192.25;5013587;28;20187;-73
2023/01/05 10:16:43;;;;;;;15.73;8.23;;;;;;;13.36;nan;-24189.84;5013160;28;20192;-73
2023/01/05 10:19:14;;;;;;;22.45;7.25;;;;;;;13.75;nan;-24200.81;5013349;28;20195;-71
2023/01/05 10:21:55;;;;;;;15.43;7.32;;;;;;;13.76;nan;-24201.09;5013369;28;20659;-73
2023/01/05 10:25:03;;;;;;;13.77;7.30;;;;;;;13.57;nan;-24195.75;5016464;28;20191;-72
2023/01/05 10:27:59;;;;;;;16.67;7.03;;;;;;;14.01;nan;-24207.97;5015162;28;20661;-71
2023/01/05 10:30:48;;;;;;;11.95;6.57;;;;;;;13.62;nan;-24197.28;5014944;28;20612;-72
2023/01/05 10:33:13;;;;;;;18.05;7.65;;;;;;;13.71;nan;-24199.69;5017842;28;20192;-72
2023/01/05 10:35:54;;;;;;;13.00;6.47;;;;;;;13.82;nan;-24202.63;5016807;28;20191;-72
2023/01/05 10:38:31;;;;;;;17.92;7.80;;;;;;;14.08;nan;-24209.91;5012258;28;20199;-72
2023/01/05 10:41:31;;;;;;;14.30;7.35;;;;;;;14.21;nan;-24213.44;5008050;28;20184;-71
2023/01/05 10:44:02;;;;;;;20.20;7.53;;;;;;;14.50;nan;-24221.56;5003509;28;20176;-73
2023/01/05 10:46:28;;;;;;;12.75;6.38;;;;;;;14.33;nan;-24216.94;5013344;28;20176;-72
2023/01/05 10:48:53;;;;;;;16.85;6.10;;;;;;;14.58;nan;-24223.94;5012980;28;20588;-71
2023/01/05 10:51:20;;;;;;;10.52;5.38;;;;;;;14.41;nan;-24219.19;5013430;28;20172;-71
2023/01/05 10:53:46;;;;;;;10.88;5.85;;;;;;;14.71;nan;-24227.47;5013021;28;20225;-71
2023/01/05 10:56:14;;;;;;;14.60;5.47;;;;;;;14.23;nan;-24214.13;5012883;28;20255;-72
2023/01/05 10:58:44;;;;;;;12.18;5.72;;;;;;;14.40;nan;-24218.75;5011643;28;20234;-72
2023/01/05 11:01:27;;;;;;;10.05;5.32;;;;;;;14.64;nan;-24225.34;5012894;28;20157;-73
2023/01/05 11:04:05;;;;;;;13.57;5.55;;;;;;;14.73;nan;-24227.88;5012836;28;20302;-74
2023/01/05 11:06:34;;;;;;;8.10;4.82;;;;;;;14.80;nan;-24229.97;5012885;28;21302;-72
2023/01/05 11:09:12;;;;;;;11.10;5.43;;;;;;;14.75;nan;-24228.56;5011661;28;20176;-72
2023/01/05 11:11:38;;;;;;;7.70;4.65;;;;;;;14.78;nan;-24229.28;5012752;28;20176;-73
2023/01/05 11:14:04;;;;;;;13.38;4.97;;;;;;;14.40;nan;-24218.75;5012575;28;20172;-73
2023/01/05 11:16:34;;;;;;;11.95;4.70;;;;;;;14.69;nan;-24226.75;5012945;28;20172;-73
2023/01/05 11:19:00;;;;;;;10.40;5.60;;;;;;;14.59;nan;-24224.09;5012183;28;20215;-73
2023/01/05 11:21:42;;;;;;;9.57;5.53;;;;;;;14.56;nan;-24223.25;5012078;28;20172;-73
2023/01/05 11:24:28;;;;;;;9.02;4.65;;;;;;;14.37;nan;-24218.06;5010561;28;20660;-72
2023/01/05 11:27:01;;;;;;;10.80;5.20;;;;;;;14.56;nan;-24223.25;5010473;28;20672;-73
2023/01/05 11:29:28;;;;;;;11.07;5.47;;;;;;;14.69;nan;-24226.91;5010304;28;20354;-72
2023/01/05 11:31:56;;;;;;;9.25;4.93;;;;;;;14.78;nan;-24229.28;5012096;28;20198;-73
2023/01/05 11:34:44;;;;;;;9.70;5.15;;;;;;;14.78;nan;-24229.28;5012002;28;20201;-73
2023/01/05 11:37:16;;;;;;;8.15;4.82;;;;;;;14.72;nan;-24227.75;5010850;28;20214;-72
2023/01/05 11:39:50;;;;;;;9.23;5.63;;;;;;;14.65;nan;-24225.78;5012237;28;20172;-74
2023/01/05 11:42:24;;;;;;;10.15;5.47;;;;;;;14.71;nan;-24227.31;5012060;28;20215;-72
2023/01/05 11:44:58;;;;;;;12.13;5.30;;;;;;;14.24;nan;-24214.28;5012218;28;20171;-72
2023/01/05 11:47:45;;;;;;;9.05;5.40;;;;;;;14.65;nan;-24225.78;5012255;28;20183;-73
2023/01/05 11:50:14;;;;;;;12.10;5.45;;;;;;;14.55;nan;-24222.97;5011995;28;20171;-72
2023/01/05 11:52:45;;;;;;;15.85;6.97;;;;;;;14.12;nan;-24211.19;5011851;28;20224;-73
2023/01/05 11:55:19;;;;;;;13.93;5.63;;;;;;;14.41;nan;-24219.19;5012099;28;20318;-73
2023/01/05 11:57:46;;;;;;;9.57;5.45;;;;;;;14.38;nan;-24218.22;5011781;28;20720;-73
2023/01/05 12:01:00;;;;;;;12.07;6.18;;;;;;;14.51;nan;-24222.00;5011938;28;20255;-72
2023/01/05 12:03:53;;;;;;;8.57;4.68;;;;;;;14.24;nan;-24214.28;5019109;28;20187;-75
2023/01/05 12:06:42;;;;;;;12.65;5.47;;;;;;;14.47;nan;-24220.88;5020782;28;20647;-74
2023/01/05 12:09:16;;;;;;;11.73;4.93;;;;;;;14.57;nan;-24223.53;5014603;28;20191;-71
2023/01/05 12:11:55;;;;;;;12.93;5.75;;;;;;;14.66;nan;-24225.91;5025123;28;20195;-71
2023/01/05 12:14:39;;;;;;;10.50;5.30;;;;;;;14.61;nan;-24224.50;5012132;28;20241;-73
2023/01/05 12:17:13;;;;;;;12.25;5.40;;;;;;;14.62;nan;-24224.94;5012131;28;20187;-73